createdAt,value
2023-03-31T00:00:59.104Z,22.81
2023-03-31T00:01:59.078Z,22.80
2023-03-31T00:02:59.238Z,22.81
2023-03-31T00:03:59.486Z,22.81
2023-03-31T00:04:59.198Z,22.81
2023-03-31T00:05:59.327Z,22.81
2023-03-31T00:06:59.269Z,22.81
2023-03-31T00:07:59.300Z,22.82
2023-03-31T00:08:59.332Z,22.82
2023-03-31T00:10:16.044Z,22.82
2023-03-31T00:11:00.344Z,22.82
2023-03-31T00:11:59.337Z,22.81
2023-03-31T00:12:59.311Z,22.81
2023-03-31T00:13:59.276Z,22.81
2023-03-31T00:14:59.424Z,22.81
2023-03-31T00:15:59.273Z,22.80
2023-03-31T00:16:59.304Z,22.80
2023-03-31T00:17:59.254Z,22.78
2023-03-31T00:18:59.184Z,22.80
2023-03-31T00:19:59.214Z,22.80
2023-03-31T00:21:01.168Z,22.80
2023-03-31T00:21:59.138Z,22.80
2023-03-31T00:22:59.110Z,22.81
2023-03-31T00:23:59.084Z,22.80
2023-03-31T00:24:59.084Z,22.80
2023-03-31T00:25:59.074Z,22.80
2023-03-31T00:26:59.024Z,22.80
2023-03-31T00:27:59.038Z,22.80
2023-03-31T00:28:58.972Z,22.78
2023-03-31T00:29:58.953Z,22.79
2023-03-31T00:30:58.935Z,22.79
2023-03-31T00:31:58.926Z,22.80
2023-03-31T00:32:59.003Z,22.79
2023-03-31T00:33:59.025Z,22.79
2023-03-31T00:34:59.047Z,22.79
2023-03-31T00:35:59.084Z,22.79
2023-03-31T00:36:59.098Z,22.79
2023-03-31T00:37:59.142Z,22.79
2023-03-31T00:38:59.212Z,22.78
2023-03-31T00:39:59.211Z,22.79
2023-03-31T00:40:59.270Z,22.79
2023-03-31T00:41:59.272Z,22.77
2023-03-31T00:42:59.266Z,22.77
2023-03-31T00:43:59.233Z,22.78
2023-03-31T00:44:59.201Z,22.78
2023-03-31T00:45:59.212Z,22.76
2023-03-31T00:46:59.142Z,22.78
2023-03-31T00:47:59.194Z,22.77
2023-03-31T00:48:59.115Z,22.78
2023-03-31T00:49:59.094Z,22.77
2023-03-31T00:50:59.087Z,22.77
2023-03-31T00:51:59.104Z,22.77
2023-03-31T00:52:59.003Z,22.78
2023-03-31T00:53:58.973Z,22.77
2023-03-31T00:54:58.993Z,22.78
2023-03-31T00:55:58.964Z,22.77
2023-03-31T00:56:59.012Z,22.77
2023-03-31T00:57:58.945Z,22.76
2023-03-31T00:58:58.949Z,22.77
2023-03-31T00:59:58.922Z,22.77
2023-03-31T01:00:58.897Z,22.77
2023-03-31T01:01:58.856Z,22.77
2023-03-31T01:02:58.912Z,22.77
2023-03-31T01:03:58.849Z,22.77
2023-03-31T01:04:58.788Z,22.78
2023-03-31T01:05:58.765Z,22.78
2023-03-31T01:06:58.724Z,22.78
2023-03-31T01:07:58.763Z,22.78
2023-03-31T01:08:58.818Z,22.78
2023-03-31T01:09:58.875Z,22.78
2023-03-31T01:10:58.900Z,22.77
2023-03-31T01:11:58.945Z,22.77
2023-03-31T01:12:59.010Z,22.77
2023-03-31T01:13:59.038Z,22.77
2023-03-31T01:14:59.130Z,22.77
2023-03-31T01:15:59.218Z,22.77
2023-03-31T01:16:59.381Z,22.77
2023-03-31T01:17:59.318Z,22.76
2023-03-31T01:18:59.255Z,22.76
2023-03-31T01:19:59.297Z,22.76
2023-03-31T01:20:59.347Z,22.76
2023-03-31T01:21:59.386Z,22.76
2023-03-31T01:22:59.423Z,22.76
2023-03-31T01:23:59.385Z,22.76
2023-03-31T01:24:59.368Z,22.76
2023-03-31T01:25:59.341Z,22.77
2023-03-31T01:26:59.367Z,22.77
2023-03-31T01:27:59.299Z,22.76
2023-03-31T01:28:59.283Z,22.76
2023-03-31T01:29:59.272Z,22.76
2023-03-31T01:30:59.312Z,22.76
2023-03-31T01:31:59.235Z,22.76
2023-03-31T01:32:59.276Z,22.76
2023-03-31T01:33:59.295Z,22.76
2023-03-31T01:34:59.278Z,22.76
2023-03-31T01:35:59.321Z,22.75
2023-03-31T01:36:59.330Z,22.75
2023-03-31T01:37:59.371Z,22.75
2023-03-31T01:38:59.433Z,22.75
2023-03-31T01:39:59.530Z,22.75
2023-03-31T01:40:59.505Z,22.75
2023-03-31T01:41:59.559Z,22.75
2023-03-31T01:42:59.607Z,22.76
2023-03-31T01:43:59.649Z,22.76
2023-03-31T01:44:59.679Z,22.75
2023-03-31T01:45:59.751Z,22.75
2023-03-31T01:46:59.756Z,22.74
2023-03-31T01:47:59.802Z,22.74
2023-03-31T01:48:59.781Z,22.74
2023-03-31T01:49:59.766Z,22.74
2023-03-31T01:50:59.746Z,22.74
2023-03-31T01:51:59.750Z,22.74
2023-03-31T01:52:59.701Z,22.74
2023-03-31T01:53:59.674Z,22.73
2023-03-31T01:54:59.631Z,22.73
2023-03-31T01:55:59.629Z,22.74
2023-03-31T01:56:59.635Z,22.75
2023-03-31T01:57:59.568Z,22.75
2023-03-31T01:58:59.608Z,22.75
2023-03-31T01:59:59.642Z,22.74
2023-03-31T02:00:59.702Z,22.74
2023-03-31T02:01:59.851Z,22.74
2023-03-31T02:02:59.920Z,22.75
2023-03-31T02:03:59.854Z,22.75
2023-03-31T02:04:59.889Z,22.75
2023-03-31T02:05:59.935Z,22.75
2023-03-31T02:06:59.953Z,22.73
2023-03-31T02:07:59.988Z,22.74
2023-03-31T02:09:00.025Z,22.72
2023-03-31T02:10:00.153Z,22.73
2023-03-31T02:11:00.132Z,22.73
2023-03-31T02:12:00.175Z,22.73
2023-03-31T02:13:00.209Z,22.73
2023-03-31T02:14:00.244Z,22.73
2023-03-31T02:15:00.286Z,22.73
2023-03-31T02:16:00.594Z,22.73
2023-03-31T02:17:00.380Z,22.72
2023-03-31T02:18:00.443Z,22.72
2023-03-31T02:19:00.452Z,22.73
2023-03-31T02:20:00.518Z,22.72
2023-03-31T02:21:00.833Z,22.72
2023-03-31T02:22:00.611Z,22.72
2023-03-31T02:23:00.735Z,22.71
2023-03-31T02:24:00.690Z,22.72
2023-03-31T02:25:00.730Z,22.72
2023-03-31T02:26:00.757Z,22.72
2023-03-31T02:27:00.842Z,22.72
2023-03-31T02:28:00.845Z,22.71
2023-03-31T02:29:00.894Z,22.72
2023-03-31T02:30:00.952Z,22.72
2023-03-31T02:31:00.980Z,22.72
2023-03-31T02:32:01.128Z,22.72
2023-03-31T02:33:01.101Z,22.72
2023-03-31T02:34:01.125Z,22.72
2023-03-31T02:35:01.185Z,22.71
2023-03-31T02:36:01.313Z,22.71
2023-03-31T02:37:01.232Z,22.71
2023-03-31T02:38:01.301Z,22.70
2023-03-31T02:39:01.328Z,22.70
2023-03-31T02:40:01.376Z,22.70
2023-03-31T02:41:01.409Z,22.71
2023-03-31T02:42:01.449Z,22.69
2023-03-31T02:43:01.487Z,22.69
2023-03-31T02:44:01.524Z,22.69
2023-03-31T02:45:01.596Z,22.70
2023-03-31T02:46:01.660Z,22.70
2023-03-31T02:47:01.659Z,22.70
2023-03-31T02:48:01.755Z,22.71
2023-03-31T02:49:01.758Z,22.71
2023-03-31T02:50:01.794Z,22.70
2023-03-31T02:51:01.929Z,22.70
2023-03-31T02:52:01.815Z,22.70
2023-03-31T02:53:01.806Z,22.69
2023-03-31T02:54:01.785Z,22.70
2023-03-31T02:55:01.771Z,22.70
2023-03-31T02:56:01.751Z,22.70
2023-03-31T02:57:01.801Z,22.71
2023-03-31T02:58:01.715Z,22.71
2023-03-31T02:59:01.705Z,22.70
2023-03-31T03:00:01.680Z,22.70
2023-03-31T03:01:01.722Z,22.69
2023-03-31T03:02:01.696Z,22.69
2023-03-31T03:03:01.828Z,22.70
2023-03-31T03:04:01.831Z,22.69
2023-03-31T03:05:01.904Z,22.69
2023-03-31T03:06:03.827Z,22.69
2023-03-31T03:07:01.837Z,22.69
2023-03-31T03:08:01.824Z,22.69
2023-03-31T03:09:01.802Z,22.69
2023-03-31T03:10:01.799Z,22.70
2023-03-31T03:11:01.809Z,22.69
2023-03-31T03:12:01.808Z,22.70
2023-03-31T03:13:01.728Z,22.69
2023-03-31T03:14:01.712Z,22.70
2023-03-31T03:15:01.712Z,22.70
2023-03-31T03:16:01.668Z,22.70
2023-03-31T03:17:01.684Z,22.70
2023-03-31T03:18:01.706Z,22.69
2023-03-31T03:19:01.615Z,22.69
2023-03-31T03:20:01.668Z,22.69
2023-03-31T03:21:01.596Z,22.69
2023-03-31T03:22:01.585Z,22.68
2023-03-31T03:23:01.552Z,22.68
2023-03-31T03:24:01.546Z,22.68
2023-03-31T03:25:01.576Z,22.69
2023-03-31T03:26:01.491Z,22.68
2023-03-31T03:27:01.482Z,22.68
2023-03-31T03:28:01.446Z,22.68
2023-03-31T03:29:01.441Z,22.68
2023-03-31T03:30:01.413Z,22.68
2023-03-31T03:31:01.535Z,22.68
2023-03-31T03:32:01.351Z,22.68
2023-03-31T03:33:01.384Z,22.68
2023-03-31T03:34:01.306Z,22.67
2023-03-31T03:35:01.291Z,22.68
2023-03-31T03:36:01.286Z,22.67
2023-03-31T03:37:01.271Z,22.68
2023-03-31T03:38:01.260Z,22.68
2023-03-31T03:39:01.231Z,22.68
2023-03-31T03:40:01.233Z,22.68
2023-03-31T03:41:01.275Z,22.67
2023-03-31T03:42:01.339Z,22.68
2023-03-31T03:43:01.376Z,22.68
2023-03-31T03:44:01.429Z,22.67
2023-03-31T03:45:01.465Z,22.68
2023-03-31T03:46:01.527Z,22.67
2023-03-31T03:47:01.553Z,22.68
2023-03-31T03:48:01.634Z,22.68
2023-03-31T03:49:01.699Z,22.67
2023-03-31T03:50:01.710Z,22.67
2023-03-31T03:51:01.741Z,22.67
2023-03-31T03:52:01.780Z,22.67
2023-03-31T03:53:01.809Z,22.66
2023-03-31T03:54:01.849Z,22.66
2023-03-31T03:55:01.983Z,22.67
2023-03-31T03:56:01.937Z,22.66
2023-03-31T03:57:01.987Z,22.66
2023-03-31T03:58:02.026Z,22.67
2023-03-31T03:59:02.054Z,22.66
2023-03-31T04:00:02.124Z,22.67
2023-03-31T04:01:02.149Z,22.66
2023-03-31T04:02:02.221Z,22.65
2023-03-31T04:03:02.268Z,22.66
2023-03-31T04:04:02.327Z,22.66
2023-03-31T04:05:02.383Z,22.66
2023-03-31T04:06:02.372Z,22.66
2023-03-31T04:07:02.431Z,22.66
2023-03-31T04:08:02.467Z,22.65
2023-03-31T04:09:02.499Z,22.65
2023-03-31T04:10:02.539Z,22.65
2023-03-31T04:11:02.691Z,22.66
2023-03-31T04:12:02.646Z,22.66
2023-03-31T04:13:02.694Z,22.66
2023-03-31T04:14:02.742Z,22.66
2023-03-31T04:15:02.817Z,22.66
2023-03-31T04:16:02.894Z,22.66
2023-03-31T04:17:02.919Z,22.65
2023-03-31T04:18:03.007Z,22.67
2023-03-31T04:19:03.027Z,22.66
2023-03-31T04:20:03.084Z,22.65
2023-03-31T04:21:03.135Z,22.65
2023-03-31T04:22:03.356Z,22.65
2023-03-31T04:23:03.275Z,22.65
2023-03-31T04:24:03.310Z,22.66
2023-03-31T04:25:03.346Z,22.65
2023-03-31T04:26:03.508Z,22.67
2023-03-31T04:27:03.500Z,22.67
2023-03-31T04:28:03.482Z,22.67
2023-03-31T04:29:03.539Z,22.67
2023-03-31T04:30:03.604Z,22.67
2023-03-31T04:31:03.644Z,22.66
2023-03-31T04:32:03.691Z,22.65
2023-03-31T04:33:03.744Z,22.66
2023-03-31T04:34:03.774Z,22.66
2023-03-31T04:35:03.813Z,22.65
2023-03-31T04:36:04.104Z,22.65
2023-03-31T04:37:03.950Z,22.65
2023-03-31T04:38:03.951Z,22.67
2023-03-31T04:39:04.004Z,22.66
2023-03-31T04:40:04.062Z,22.66
2023-03-31T04:41:04.133Z,22.66
2023-03-31T04:42:04.161Z,22.66
2023-03-31T04:43:04.239Z,22.65
2023-03-31T04:44:04.236Z,22.65
2023-03-31T04:45:04.316Z,22.66
2023-03-31T04:46:04.661Z,22.65
2023-03-31T04:47:04.377Z,22.65
2023-03-31T04:48:04.502Z,22.64
2023-03-31T04:49:04.478Z,22.65
2023-03-31T04:50:04.529Z,22.65
2023-03-31T04:51:04.591Z,22.65
2023-03-31T04:52:04.635Z,22.64
2023-03-31T04:53:04.676Z,22.64
2023-03-31T04:54:04.698Z,22.63
2023-03-31T04:55:04.625Z,22.64
2023-03-31T04:56:04.865Z,22.64
2023-03-31T04:57:04.670Z,22.64
2023-03-31T04:58:04.583Z,22.63
2023-03-31T04:59:04.579Z,22.63
2023-03-31T05:00:04.548Z,22.63
2023-03-31T05:01:04.671Z,22.64
2023-03-31T05:02:04.561Z,22.65
2023-03-31T05:03:04.593Z,22.64
2023-03-31T05:04:04.512Z,22.64
2023-03-31T05:05:04.526Z,22.64
2023-03-31T05:06:04.646Z,22.65
2023-03-31T05:07:04.487Z,22.64
2023-03-31T05:08:04.446Z,22.64
2023-03-31T05:09:04.475Z,22.64
2023-03-31T05:10:04.534Z,22.64
2023-03-31T05:11:04.589Z,22.64
2023-03-31T05:12:04.642Z,22.63
2023-03-31T05:13:04.700Z,22.64
2023-03-31T05:14:04.743Z,22.63
2023-03-31T05:15:04.803Z,22.64
2023-03-31T05:16:05.267Z,22.64
2023-03-31T05:17:04.959Z,22.63
2023-03-31T05:18:05.009Z,22.63
2023-03-31T05:19:04.988Z,22.63
2023-03-31T05:20:05.036Z,22.62
2023-03-31T05:21:05.085Z,22.63
2023-03-31T05:22:05.129Z,22.64
2023-03-31T05:23:05.205Z,22.63
2023-03-31T05:24:05.225Z,22.63
2023-03-31T05:25:05.192Z,22.63
2023-03-31T05:26:05.344Z,22.63
2023-03-31T05:27:05.147Z,22.63
2023-03-31T05:28:05.133Z,22.64
2023-03-31T05:29:05.105Z,22.64
2023-03-31T05:30:05.264Z,22.62
2023-03-31T05:31:05.073Z,22.60
2023-03-31T05:32:05.086Z,22.59
2023-03-31T05:33:05.221Z,22.60
2023-03-31T05:34:05.009Z,22.59
2023-03-31T05:35:05.051Z,22.60
2023-03-31T05:36:05.300Z,22.61
2023-03-31T05:37:04.955Z,22.61
2023-03-31T05:38:04.987Z,22.61
2023-03-31T05:39:05.024Z,22.61
2023-03-31T05:40:05.075Z,22.61
2023-03-31T05:41:05.129Z,22.62
2023-03-31T05:42:05.185Z,22.61
2023-03-31T05:43:05.231Z,22.63
2023-03-31T05:44:05.275Z,22.63
2023-03-31T05:45:06.034Z,22.64
2023-03-31T05:46:05.983Z,22.64
2023-03-31T05:47:05.481Z,22.65
2023-03-31T05:48:05.583Z,22.65
2023-03-31T05:49:05.612Z,22.67
2023-03-31T05:50:05.648Z,22.67
2023-03-31T05:51:05.812Z,22.68
2023-03-31T05:52:05.727Z,22.70
2023-03-31T05:53:08.144Z,22.70
2023-03-31T05:54:05.762Z,22.69
2023-03-31T05:55:05.746Z,22.70
2023-03-31T05:56:06.078Z,22.70
2023-03-31T05:57:05.757Z,22.70
2023-03-31T05:58:05.691Z,22.70
2023-03-31T05:59:05.777Z,22.70
2023-03-31T06:00:05.721Z,22.70
2023-03-31T06:01:05.831Z,22.69
2023-03-31T06:02:05.645Z,22.69
2023-03-31T06:03:05.821Z,22.68
2023-03-31T06:04:05.572Z,22.68
2023-03-31T06:05:05.600Z,22.68
2023-03-31T06:06:05.569Z,22.68
2023-03-31T06:07:05.544Z,22.67
2023-03-31T06:08:05.509Z,22.68
2023-03-31T06:09:05.509Z,22.68
2023-03-31T06:10:05.445Z,22.68
2023-03-31T06:11:05.643Z,22.68
2023-03-31T06:12:05.396Z,22.68
2023-03-31T06:13:05.413Z,22.67
2023-03-31T06:14:05.435Z,22.67
2023-03-31T06:15:05.352Z,22.66
2023-03-31T06:16:05.382Z,22.65
2023-03-31T06:17:05.330Z,22.64
2023-03-31T06:18:05.342Z,22.63
2023-03-31T06:19:05.291Z,22.63
2023-03-31T06:20:15.899Z,22.63
2023-03-31T06:21:06.455Z,22.62
2023-03-31T06:22:05.310Z,22.62
2023-03-31T06:23:05.228Z,22.63
2023-03-31T06:24:05.224Z,22.64
2023-03-31T06:25:05.193Z,22.62
2023-03-31T06:26:05.162Z,22.61
2023-03-31T06:27:05.166Z,22.61
2023-03-31T06:28:05.135Z,22.61
2023-03-31T06:29:05.133Z,22.62
2023-03-31T06:30:05.196Z,22.63
2023-03-31T06:31:05.496Z,22.64
2023-03-31T06:32:05.343Z,22.65
2023-03-31T06:33:05.564Z,22.66
2023-03-31T06:34:05.163Z,22.69
2023-03-31T06:35:05.124Z,22.70
2023-03-31T06:36:05.134Z,22.70
2023-03-31T06:37:05.174Z,22.72
2023-03-31T06:38:05.044Z,22.72
2023-03-31T06:39:05.037Z,22.73
2023-03-31T06:40:05.064Z,22.72
2023-03-31T06:41:05.315Z,22.73
2023-03-31T06:42:05.015Z,22.74
2023-03-31T06:43:04.968Z,22.75
2023-03-31T06:44:05.156Z,22.75
2023-03-31T06:45:04.880Z,22.76
2023-03-31T06:46:05.021Z,22.76
2023-03-31T06:47:04.927Z,22.76
2023-03-31T06:48:05.065Z,22.77
2023-03-31T06:49:05.014Z,22.77
2023-03-31T06:50:05.106Z,22.78
2023-03-31T06:51:05.124Z,22.78
2023-03-31T06:52:05.132Z,22.77
2023-03-31T06:53:05.178Z,22.78
2023-03-31T06:54:05.212Z,22.79
2023-03-31T06:55:05.252Z,22.78
2023-03-31T06:56:05.544Z,22.79
2023-03-31T06:57:05.348Z,22.78
2023-03-31T06:58:05.371Z,22.79
2023-03-31T06:59:05.406Z,22.80
2023-03-31T07:00:05.436Z,22.81
2023-03-31T07:01:05.839Z,22.81
2023-03-31T07:02:05.561Z,22.80
2023-03-31T07:03:05.635Z,22.81
2023-03-31T07:04:05.624Z,22.81
2023-03-31T07:05:05.617Z,22.82
2023-03-31T07:06:05.666Z,22.82
2023-03-31T07:07:05.709Z,22.81
2023-03-31T07:08:05.662Z,22.81
2023-03-31T07:09:05.646Z,22.80
2023-03-31T07:10:05.658Z,22.80
2023-03-31T07:11:06.177Z,22.79
2023-03-31T07:12:05.605Z,22.79
2023-03-31T07:13:05.833Z,22.80
2023-03-31T07:14:05.593Z,22.79
2023-03-31T07:15:05.546Z,22.78
2023-03-31T07:16:05.880Z,22.78
2023-03-31T07:17:05.498Z,22.78
2023-03-31T07:18:05.509Z,22.80
2023-03-31T07:19:05.572Z,22.79
2023-03-31T07:20:05.568Z,22.80
2023-03-31T07:21:09.029Z,22.79
2023-03-31T07:22:05.589Z,22.78
2023-03-31T07:23:05.590Z,22.80
2023-03-31T07:24:05.571Z,22.83
2023-03-31T07:25:05.539Z,22.83
2023-03-31T07:26:05.521Z,22.83
2023-03-31T07:27:05.531Z,22.83
2023-03-31T07:28:05.480Z,22.83
2023-03-31T07:29:05.469Z,22.83
2023-03-31T07:30:05.425Z,22.86
2023-03-31T07:31:05.582Z,22.88
2023-03-31T07:32:05.437Z,22.87
2023-03-31T07:33:05.394Z,22.86
2023-03-31T07:34:05.343Z,22.86
2023-03-31T07:35:05.366Z,22.88
2023-03-31T07:36:12.912Z,22.89
2023-03-31T07:37:06.297Z,22.94
2023-03-31T07:38:05.265Z,23.49
2023-03-31T07:39:05.290Z,23.48
2023-03-31T07:40:05.215Z,23.36
2023-03-31T07:41:09.268Z,23.28
2023-03-31T07:42:05.190Z,23.24
2023-03-31T07:43:05.145Z,23.21
2023-03-31T07:44:05.142Z,23.18
2023-03-31T07:45:05.116Z,23.15
2023-03-31T07:46:05.394Z,23.14
2023-03-31T07:47:05.089Z,23.14
2023-03-31T07:48:05.112Z,23.15
2023-03-31T07:49:05.073Z,23.16
2023-03-31T07:50:04.989Z,23.12
2023-03-31T07:51:05.199Z,23.12
2023-03-31T07:52:05.006Z,23.09
2023-03-31T07:53:04.907Z,23.07
2023-03-31T07:54:04.913Z,23.08
2023-03-31T07:55:04.857Z,23.10
2023-03-31T07:56:05.124Z,23.11
2023-03-31T07:57:04.840Z,23.14
2023-03-31T07:58:04.800Z,23.15
2023-03-31T07:59:04.791Z,23.17
2023-03-31T08:00:04.757Z,23.17
2023-03-31T08:01:04.993Z,23.20
2023-03-31T08:02:04.898Z,23.20
2023-03-31T08:03:04.664Z,23.20
2023-03-31T08:04:04.727Z,23.18
2023-03-31T08:05:04.611Z,23.18
2023-03-31T08:06:04.637Z,23.18
2023-03-31T08:07:04.579Z,23.16
2023-03-31T08:08:04.521Z,23.15
2023-03-31T08:09:04.570Z,23.14
2023-03-31T08:10:04.564Z,23.14
2023-03-31T08:11:04.633Z,23.14
2023-03-31T08:12:04.574Z,23.12
2023-03-31T08:13:04.545Z,23.12
2023-03-31T08:14:04.578Z,23.10
2023-03-31T08:15:04.563Z,23.09
2023-03-31T08:16:04.864Z,23.08
2023-03-31T08:17:04.579Z,23.08
2023-03-31T08:18:04.637Z,23.07
2023-03-31T08:19:04.543Z,23.07
2023-03-31T08:20:07.830Z,23.07
2023-03-31T08:21:04.686Z,23.06
2023-03-31T08:22:04.473Z,23.06
2023-03-31T08:23:04.513Z,23.07
2023-03-31T08:24:04.444Z,23.08
2023-03-31T08:25:04.479Z,23.08
2023-03-31T08:26:04.595Z,23.13
2023-03-31T08:27:04.483Z,23.17
2023-03-31T08:28:04.415Z,23.17
2023-03-31T08:29:04.366Z,23.15
2023-03-31T08:30:04.339Z,23.14
2023-03-31T08:31:04.320Z,23.14
2023-03-31T08:32:04.361Z,23.12
2023-03-31T08:33:04.460Z,23.12
2023-03-31T08:34:04.268Z,23.12
2023-03-31T08:35:04.229Z,23.12
2023-03-31T08:36:04.377Z,23.11
2023-03-31T08:37:05.588Z,23.11
2023-03-31T08:38:04.195Z,23.12
2023-03-31T08:39:04.978Z,23.13
2023-03-31T08:40:04.176Z,23.13
2023-03-31T08:41:04.096Z,23.12
2023-03-31T08:42:04.106Z,23.12
2023-03-31T08:43:04.134Z,23.15
2023-03-31T08:44:04.103Z,23.18
2023-03-31T08:45:04.109Z,23.19
2023-03-31T08:46:04.358Z,23.19
2023-03-31T08:47:03.993Z,23.17
2023-03-31T08:48:05.298Z,23.14
2023-03-31T08:49:03.938Z,23.11
2023-03-31T08:50:04.004Z,23.11
2023-03-31T08:51:04.200Z,23.14
2023-03-31T08:52:03.907Z,23.15
2023-03-31T08:53:03.883Z,23.20
2023-03-31T08:54:03.852Z,23.22
2023-03-31T08:55:03.957Z,23.24
2023-03-31T08:56:03.945Z,23.27
2023-03-31T08:57:03.868Z,23.26
2023-03-31T08:58:03.758Z,23.29
2023-03-31T08:59:03.723Z,23.31
2023-03-31T09:00:03.726Z,23.33
2023-03-31T09:01:03.842Z,23.34
2023-03-31T09:02:03.887Z,23.35
2023-03-31T09:03:06.600Z,23.37
2023-03-31T09:04:05.019Z,23.38
2023-03-31T09:05:03.632Z,23.38
2023-03-31T09:06:03.655Z,23.41
2023-03-31T09:07:03.649Z,23.43
2023-03-31T09:08:03.499Z,23.46
2023-03-31T09:09:03.509Z,23.46
2023-03-31T09:10:03.472Z,23.43
2023-03-31T09:11:03.438Z,23.43
2023-03-31T09:12:03.412Z,23.45
2023-03-31T09:13:03.371Z,23.45
2023-03-31T09:14:03.354Z,23.45
2023-03-31T09:15:03.419Z,23.46
2023-03-31T09:16:03.317Z,23.44
2023-03-31T09:17:03.455Z,23.45
2023-03-31T09:18:03.329Z,23.45
2023-03-31T09:19:03.360Z,23.44
2023-03-31T09:20:03.244Z,23.46
2023-03-31T09:21:03.178Z,23.46
2023-03-31T09:22:03.112Z,23.45
2023-03-31T09:23:03.089Z,23.44
2023-03-31T09:24:03.056Z,23.44
2023-03-31T09:25:03.092Z,23.46
2023-03-31T09:26:03.003Z,23.46
2023-03-31T09:27:03.010Z,23.46
2023-03-31T09:28:02.960Z,23.46
2023-03-31T09:29:03.011Z,23.49
2023-03-31T09:30:03.050Z,23.50
2023-03-31T09:31:02.928Z,23.49
2023-03-31T09:32:03.006Z,23.52
2023-03-31T09:33:02.929Z,23.54
2023-03-31T09:34:03.037Z,23.53
2023-03-31T09:35:02.819Z,23.52
2023-03-31T09:36:02.797Z,23.51
2023-03-31T09:37:02.813Z,23.52
2023-03-31T09:38:02.749Z,23.52
2023-03-31T09:39:02.710Z,23.51
2023-03-31T09:40:02.707Z,23.52
2023-03-31T09:41:02.788Z,23.52
2023-03-31T09:42:02.645Z,23.52
2023-03-31T09:43:02.709Z,23.53
2023-03-31T09:44:02.628Z,23.54
2023-03-31T09:45:02.654Z,23.56
2023-03-31T09:46:09.837Z,23.58
2023-03-31T09:47:03.695Z,23.57
2023-03-31T09:48:02.618Z,23.56
2023-03-31T09:49:02.457Z,23.57
2023-03-31T09:50:02.496Z,23.58
2023-03-31T09:51:02.415Z,23.59
2023-03-31T09:52:02.385Z,23.60
2023-03-31T09:53:02.384Z,23.61
2023-03-31T09:54:02.339Z,23.62
2023-03-31T09:55:02.463Z,23.63
2023-03-31T09:56:02.274Z,23.64
2023-03-31T09:57:02.305Z,23.61
2023-03-31T09:58:02.210Z,23.65
2023-03-31T09:59:02.343Z,23.65
2023-03-31T10:00:02.231Z,23.64
2023-03-31T10:01:02.177Z,23.64
2023-03-31T10:02:02.369Z,23.63
2023-03-31T10:03:02.272Z,23.63
2023-03-31T10:04:02.313Z,23.61
2023-03-31T10:05:02.405Z,23.60
2023-03-31T10:06:02.339Z,23.59
2023-03-31T10:07:02.349Z,23.60
2023-03-31T10:08:02.313Z,23.62
2023-03-31T10:09:02.327Z,23.61
2023-03-31T10:10:02.382Z,23.61
2023-03-31T10:11:02.385Z,23.61
2023-03-31T10:12:02.386Z,23.60
2023-03-31T10:13:02.370Z,23.60
2023-03-31T10:14:02.367Z,23.60
2023-03-31T10:15:02.432Z,23.60
2023-03-31T10:16:02.480Z,23.60
2023-03-31T10:17:02.400Z,23.63
2023-03-31T10:18:02.437Z,23.63
2023-03-31T10:19:02.421Z,23.62
2023-03-31T10:20:02.447Z,23.61
2023-03-31T10:21:02.488Z,23.61
2023-03-31T10:22:02.501Z,23.62
2023-03-31T10:23:02.509Z,23.62
2023-03-31T10:24:02.532Z,23.61
2023-03-31T10:25:02.562Z,23.60
2023-03-31T10:26:02.607Z,23.60
2023-03-31T10:27:02.641Z,23.60
2023-03-31T10:28:02.619Z,23.59
2023-03-31T10:29:02.650Z,23.59
2023-03-31T10:30:02.571Z,23.59
2023-03-31T10:31:02.580Z,23.60
2023-03-31T10:32:02.479Z,23.60
2023-03-31T10:33:15.106Z,23.60
2023-03-31T10:34:03.429Z,23.59
2023-03-31T10:35:02.400Z,23.59
2023-03-31T10:36:02.430Z,23.58
2023-03-31T10:37:02.351Z,23.57
2023-03-31T10:38:04.522Z,23.58
2023-03-31T10:39:02.287Z,23.56
2023-03-31T10:40:02.353Z,23.55
2023-03-31T10:41:02.301Z,23.56
2023-03-31T10:42:02.243Z,23.55
2023-03-31T10:43:02.189Z,23.55
2023-03-31T10:44:02.188Z,23.55
2023-03-31T10:45:02.153Z,23.54
2023-03-31T10:46:02.280Z,23.56
2023-03-31T10:47:02.167Z,23.56
2023-03-31T10:48:02.134Z,23.57
2023-03-31T10:49:02.068Z,23.58
2023-03-31T10:50:02.054Z,23.61
2023-03-31T10:51:02.028Z,23.61
2023-03-31T10:52:02.020Z,23.62
2023-03-31T10:53:02.012Z,23.62
2023-03-31T10:54:02.002Z,23.62
2023-03-31T10:55:01.991Z,23.61
2023-03-31T10:56:01.925Z,23.60
2023-03-31T10:57:01.958Z,23.60
2023-03-31T10:58:01.875Z,23.58
2023-03-31T10:59:06.051Z,23.58
2023-03-31T11:00:01.845Z,23.58
2023-03-31T11:01:02.516Z,23.58
2023-03-31T11:02:01.820Z,23.57
2023-03-31T11:03:02.057Z,23.58
2023-03-31T11:04:01.825Z,23.57
2023-03-31T11:05:01.708Z,23.57
2023-03-31T11:06:01.694Z,23.57
2023-03-31T11:07:01.721Z,23.58
2023-03-31T11:08:01.647Z,23.58
2023-03-31T11:09:01.611Z,23.58
2023-03-31T11:10:01.610Z,23.58
2023-03-31T11:11:02.002Z,23.57
2023-03-31T11:12:01.571Z,23.57
2023-03-31T11:13:01.780Z,23.57
2023-03-31T11:14:01.607Z,23.56
2023-03-31T11:15:01.995Z,23.55
2023-03-31T11:16:01.540Z,23.57
2023-03-31T11:17:01.578Z,23.57
2023-03-31T11:18:01.342Z,23.57
2023-03-31T11:19:01.351Z,23.57
2023-03-31T11:20:01.324Z,23.57
2023-03-31T11:21:02.293Z,23.57
2023-03-31T11:22:01.206Z,23.58
2023-03-31T11:23:01.161Z,23.58
2023-03-31T11:24:01.200Z,23.57
2023-03-31T11:25:01.090Z,23.56
2023-03-31T11:26:01.067Z,23.56
2023-03-31T11:27:01.023Z,23.55
2023-03-31T11:28:01.043Z,23.56
2023-03-31T11:29:00.958Z,23.58
2023-03-31T11:30:01.043Z,23.58
2023-03-31T11:31:00.942Z,23.57
2023-03-31T11:32:00.912Z,23.56
2023-03-31T11:33:00.872Z,23.55
2023-03-31T11:34:00.806Z,23.55
2023-03-31T11:35:00.830Z,23.54
2023-03-31T11:36:00.808Z,23.54
2023-03-31T11:37:01.003Z,23.55
2023-03-31T11:38:00.701Z,23.56
2023-03-31T11:39:00.712Z,23.55
2023-03-31T11:40:00.729Z,23.54
2023-03-31T11:41:00.650Z,23.53
2023-03-31T11:42:00.668Z,23.53
2023-03-31T11:43:00.580Z,23.52
2023-03-31T11:44:00.573Z,23.53
2023-03-31T11:45:00.557Z,23.52
2023-03-31T11:46:00.644Z,23.51
2023-03-31T11:47:00.549Z,23.51
2023-03-31T11:48:00.509Z,23.50
2023-03-31T11:49:00.428Z,23.50
2023-03-31T11:50:00.416Z,23.49
2023-03-31T11:51:00.383Z,23.49
2023-03-31T11:52:00.373Z,23.49
2023-03-31T11:53:00.370Z,23.48
2023-03-31T11:54:00.360Z,23.47
2023-03-31T11:55:02.952Z,23.49
2023-03-31T11:56:00.284Z,23.48
2023-03-31T11:57:00.253Z,23.49
2023-03-31T11:58:00.192Z,23.48
2023-03-31T11:59:00.164Z,23.47
2023-03-31T12:00:00.152Z,23.47
2023-03-31T12:01:02.653Z,23.47
2023-03-31T12:02:00.141Z,23.46
2023-03-31T12:03:00.113Z,23.46
2023-03-31T12:04:01.041Z,23.45
2023-03-31T12:05:00.003Z,23.44
2023-03-31T12:06:00.012Z,23.43
2023-03-31T12:07:02.286Z,23.43
2023-03-31T12:08:00.010Z,23.43
2023-03-31T12:08:59.981Z,23.43
2023-03-31T12:09:59.979Z,23.45
2023-03-31T12:10:59.976Z,23.43
2023-03-31T12:11:59.942Z,23.45
2023-03-31T12:13:02.529Z,23.43
2023-03-31T12:13:59.929Z,23.44
2023-03-31T12:14:59.872Z,23.45
2023-03-31T12:15:59.879Z,23.45
2023-03-31T12:16:59.823Z,23.44
2023-03-31T12:17:59.820Z,23.44
2023-03-31T12:18:59.767Z,23.44
2023-03-31T12:19:59.747Z,23.44
2023-03-31T12:20:59.726Z,23.43
2023-03-31T12:21:59.722Z,23.43
2023-03-31T12:22:59.681Z,23.42
2023-03-31T12:23:59.671Z,23.42
2023-03-31T12:24:59.857Z,23.42
2023-03-31T12:25:59.641Z,23.41
2023-03-31T12:26:59.614Z,23.41
2023-03-31T12:27:59.569Z,23.40
2023-03-31T12:28:59.532Z,23.40
2023-03-31T12:29:59.513Z,23.40
2023-03-31T12:30:59.616Z,23.41
2023-03-31T12:31:59.509Z,23.40
2023-03-31T12:32:59.507Z,23.40
2023-03-31T12:33:59.461Z,23.40
2023-03-31T12:34:59.409Z,23.40
2023-03-31T12:35:59.412Z,23.39
2023-03-31T12:36:59.386Z,23.40
2023-03-31T12:37:59.354Z,23.40
2023-03-31T12:38:59.370Z,23.40
2023-03-31T12:39:59.340Z,23.40
2023-03-31T12:40:59.288Z,23.40
2023-03-31T12:41:59.280Z,23.40
2023-03-31T12:42:59.245Z,23.39
2023-03-31T12:43:59.226Z,23.40
2023-03-31T12:44:59.220Z,23.40
2023-03-31T12:45:59.200Z,23.40
2023-03-31T12:46:59.228Z,23.40
2023-03-31T12:47:59.201Z,23.40
2023-03-31T12:49:00.144Z,23.40
2023-03-31T12:49:59.157Z,23.41
2023-03-31T12:50:59.101Z,23.40
2023-03-31T12:51:59.096Z,23.40
2023-03-31T12:52:59.101Z,23.40